Time;durP1;ratioP1;P1;durP2;ratioP2;P2;SDS_P1;SDS_P2;PMS_P1;PMS_P2;Temp;Humidity;BMP_temperature;BMP_pressure;BME280_temperature;BME280_humidity;BME280_pressure;Samples;Min_cycle;Max_cycle;Signal;HPM_P1;HPM_P2
2021/05/25 00:01:21;;;;;;;0.30;0.20;;;;;;;11.44;99.25;99906.19;5006509;28;20459;-51
2021/05/25 00:03:48;;;;;;;0.30;0.20;;;;;;;11.47;97.22;99902.53;5000550;28;20515;-50
2021/05/25 00:06:15;;;;;;;0.30;0.20;;;;;;;11.35;98.61;99895.91;5024604;28;20808;-50
2021/05/25 00:08:42;;;;;;;0.30;0.20;;;;;;;11.50;98.93;99895.31;5001673;28;20813;-50
2021/05/25 00:11:09;;;;;;;0.30;0.20;;;;;;;11.26;99.65;99898.94;4999092;28;20448;-50
2021/05/25 00:13:36;;;;;;;0.30;0.20;;;;;;;11.41;98.83;99908.97;5001477;28;20457;-50
2021/05/25 00:16:04;;;;;;;0.30;0.20;;;;;;;11.50;97.80;99897.97;4998610;28;21010;-50
2021/05/25 00:18:31;;;;;;;0.30;0.20;;;;;;;11.26;98.96;99902.44;5003799;28;20446;-50
2021/05/25 00:20:57;;;;;;;0.30;0.20;;;;;;;11.28;97.91;99902.38;5006330;28;20452;-51
2021/05/25 00:23:24;;;;;;;0.30;0.20;;;;;;;11.20;97.92;99905.31;5001716;28;20479;-50
2021/05/25 00:25:51;;;;;;;0.30;0.20;;;;;;;11.34;97.51;99909.25;5005615;28;20464;-50
2021/05/25 00:28:20;;;;;;;0.30;0.20;;;;;;;11.36;96.51;99902.09;5000377;28;20961;-51
2021/05/25 00:30:47;;;;;;;0.30;0.20;;;;;;;11.22;97.23;99895.47;4997510;28;20457;-51
2021/05/25 00:33:14;;;;;;;0.30;0.30;;;;;;;11.32;96.08;99890.69;5003387;28;20472;-50
2021/05/25 00:35:41;;;;;;;0.30;0.20;;;;;;;11.36;96.27;99889.66;5005733;28;20507;-50
2021/05/25 00:38:10;;;;;;;0.30;0.20;;;;;;;11.35;96.81;99889.69;5002103;28;20453;-50
2021/05/25 00:40:38;;;;;;;0.30;0.20;;;;;;;11.23;96.58;99891.91;4999105;28;20452;-50
2021/05/25 00:43:05;;;;;;;0.30;0.20;;;;;;;11.29;96.86;99893.47;5001845;28;20449;-50
2021/05/25 00:45:32;;;;;;;0.30;0.20;;;;;;;11.06;97.69;99885.47;5005347;28;20597;-50
2021/05/25 00:47:58;;;;;;;0.30;0.20;;;;;;;11.34;95.77;99891.50;5003152;28;20859;-50
2021/05/25 00:50:29;;;;;;;0.30;0.20;;;;;;;11.23;96.83;99894.56;4999020;28;20483;-50
2021/05/25 00:52:58;;;;;;;0.30;0.20;;;;;;;10.98;97.61;99899.94;5000760;28;20442;-51
2021/05/25 00:55:27;;;;;;;0.30;0.20;;;;;;;10.87;97.16;99898.59;5005594;28;20501;-50
2021/05/25 00:57:57;;;;;;;0.30;0.20;;;;;;;10.89;97.89;99902.06;5004949;28;20507;-51
2021/05/25 01:00:50;;;;;;;0.30;0.20;;;;;;;11.01;96.45;99903.41;4998864;28;20452;-51
2021/05/25 01:03:19;;;;;;;0.30;0.20;;;;;;;10.95;97.06;99902.69;4998787;28;20515;-50
2021/05/25 01:05:47;;;;;;;0.30;0.20;;;;;;;10.77;97.53;99910.47;5023236;28;20467;-50
2021/05/25 01:08:14;;;;;;;0.30;0.20;;;;;;;10.98;97.20;99905.25;5000489;28;20518;-50
2021/05/25 01:10:46;;;;;;;0.30;0.20;;;;;;;11.04;97.27;99909.47;5000511;28;20456;-50
2021/05/25 01:13:24;;;;;;;0.30;0.20;;;;;;;11.10;95.71;99909.28;4998083;28;20950;-50
2021/05/25 01:15:52;;;;;;;0.50;0.33;;;;;;;10.95;97.22;99905.34;4998237;28;20862;-51
2021/05/25 01:18:19;;;;;;;0.30;0.20;;;;;;;11.02;96.50;99914.00;4997066;28;20817;-50
2021/05/25 01:20:49;;;;;;;0.30;0.20;;;;;;;11.18;95.94;99909.84;4998896;28;20450;-50
2021/05/25 01:23:16;;;;;;;0.30;0.20;;;;;;;10.96;96.03;99911.53;5004005;28;20449;-50
2021/05/25 01:25:48;;;;;;;0.30;0.20;;;;;;;11.02;96.48;99910.47;5005733;28;21312;-50
2021/05/25 01:28:19;;;;;;;0.30;0.20;;;;;;;11.07;96.33;99911.16;5005427;28;20440;-51
2021/05/25 01:30:51;;;;;;;0.30;0.20;;;;;;;10.94;96.97;99911.59;5002103;28;20444;-51
2021/05/25 01:33:20;;;;;;;0.30;0.20;;;;;;;10.99;96.38;99908.78;5005040;28;20453;-51
2021/05/25 01:35:47;;;;;;;0.30;0.20;;;;;;;11.16;95.98;99910.81;5008683;28;20555;-51
2021/05/25 01:38:15;;;;;;;0.30;0.20;;;;;;;11.00;95.39;99905.22;5006761;28;20449;-50
2021/05/25 01:40:43;;;;;;;0.30;0.20;;;;;;;11.08;95.16;99911.09;5002087;28;20946;-50
2021/05/25 01:43:10;;;;;;;0.30;0.20;;;;;;;11.23;95.38;99922.97;5004094;28;20452;-51
2021/05/25 01:45:37;;;;;;;0.30;0.20;;;;;;;10.96;95.94;99912.44;5008352;28;21036;-50
2021/05/25 01:48:07;;;;;;;0.30;0.20;;;;;;;11.04;95.63;99911.28;5007341;28;20514;-50
2021/05/25 01:50:35;;;;;;;0.30;0.20;;;;;;;11.04;96.16;99917.47;5001919;28;20976;-50
2021/05/25 01:53:25;;;;;;;0.30;0.20;;;;;;;11.07;96.14;99916.47;5002781;28;20461;-51
2021/05/25 01:55:54;;;;;;;0.40;0.37;;;;;;;10.95;96.52;99915.13;4997064;28;20543;-51
2021/05/25 01:58:22;;;;;;;0.30;0.20;;;;;;;10.93;96.77;99912.53;5011674;28;20507;-51
2021/05/25 02:01:17;;;;;;;0.30;0.20;;;;;;;11.20;96.16;99915.09;5005008;28;20782;-50
2021/05/25 02:03:43;;;;;;;0.30;0.20;;;;;;;10.93;95.98;99916.97;5003057;28;20457;-51
2021/05/25 02:06:11;;;;;;;0.40;0.40;;;;;;;10.97;94.00;99915.97;5027047;28;20467;-51
2021/05/25 02:08:39;;;;;;;0.30;0.20;;;;;;;10.88;95.93;99914.50;5003219;28;20824;-50
2021/05/25 02:11:08;;;;;;;0.30;0.20;;;;;;;10.91;96.19;99910.84;4999750;28;20568;-51
2021/05/25 02:13:37;;;;;;;0.30;0.20;;;;;;;11.00;95.43;99921.16;5003566;28;20471;-51
2021/05/25 02:16:07;;;;;;;0.30;0.20;;;;;;;10.86;95.47;99915.47;5001433;28;20914;-50
2021/05/25 02:18:43;;;;;;;0.30;0.20;;;;;;;10.93;95.97;99923.16;5005485;28;20456;-50
2021/05/25 02:21:11;;;;;;;0.30;0.20;;;;;;;11.11;95.58;99920.78;5008208;28;20468;-50
2021/05/25 02:23:38;;;;;;;0.30;0.20;;;;;;;11.43;94.31;99923.09;5006064;28;20448;-50
2021/05/25 02:26:06;;;;;;;0.30;0.30;;;;;;;11.13;94.07;99929.56;5005030;28;20466;-50
2021/05/25 02:28:33;;;;;;;0.30;0.20;;;;;;;11.10;94.63;99927.91;5006485;28;20453;-50
2021/05/25 02:31:00;;;;;;;0.30;0.20;;;;;;;11.09;93.81;99919.94;5001422;28;20874;-50
2021/05/25 02:33:27;;;;;;;0.30;0.20;;;;;;;11.15;93.69;99920.59;5003046;28;20453;-50
2021/05/25 02:35:57;;;;;;;0.30;0.20;;;;;;;10.97;93.97;99927.47;5007687;28;20489;-51
2021/05/25 02:38:24;;;;;;;0.30;0.20;;;;;;;10.81;95.17;99920.94;5006027;28;20460;-51
2021/05/25 02:40:52;;;;;;;0.30;0.20;;;;;;;10.96;95.02;99922.19;5001322;28;20527;-50
2021/05/25 02:43:21;;;;;;;0.30;0.20;;;;;;;11.03;93.68;99914.84;5002184;28;20453;-51
2021/05/25 02:45:49;;;;;;;0.30;0.20;;;;;;;11.05;93.89;99923.66;5007629;28;20473;-50
2021/05/25 02:48:17;;;;;;;0.30;0.20;;;;;;;11.04;93.70;99916.59;5007554;28;20452;-50
2021/05/25 02:50:43;;;;;;;0.30;0.20;;;;;;;10.91;94.39;99916.16;5014029;28;20511;-50
2021/05/25 02:53:11;;;;;;;0.30;0.20;;;;;;;10.83;94.48;99915.59;5001019;28;20461;-50
2021/05/25 02:55:40;;;;;;;0.30;0.20;;;;;;;10.85;94.94;99922.59;4996673;28;20874;-51
2021/05/25 02:58:08;;;;;;;0.30;0.20;;;;;;;10.91;94.10;99924.13;5007778;28;20468;-51
2021/05/25 03:00:43;;;;;;;0.30;0.20;;;;;;;10.96;93.82;99923.06;5001610;28;20946;-52
2021/05/25 03:03:10;;;;;;;0.73;0.73;;;;;;;10.89;94.33;99929.53;5000584;28;20453;-51
2021/05/25 03:05:38;;;;;;;0.30;0.20;;;;;;;10.86;94.03;99931.44;5023825;28;20521;-51
2021/05/25 03:08:07;;;;;;;0.30;0.20;;;;;;;10.93;94.13;99933.78;5003581;28;20929;-50
2021/05/25 03:10:36;;;;;;;0.30;0.20;;;;;;;11.13;93.19;99926.91;5003430;28;20460;-50
2021/05/25 03:13:03;;;;;;;0.30;0.20;;;;;;;11.04;93.04;99943.19;4999154;28;20855;-51
2021/05/25 03:15:33;;;;;;;0.30;0.20;;;;;;;10.95;93.60;99936.41;5002471;28;20481;-51
2021/05/25 03:18:00;;;;;;;0.30;0.20;;;;;;;10.97;93.22;99942.56;5007635;28;20504;-50
2021/05/25 03:20:27;;;;;;;0.30;0.20;;;;;;;11.02;92.59;99942.38;5005369;28;20942;-51
2021/05/25 03:22:55;;;;;;;0.30;0.20;;;;;;;11.02;93.07;99939.72;5000395;28;20445;-50
2021/05/25 03:25:22;;;;;;;0.30;0.20;;;;;;;11.02;92.84;99945.91;5008477;28;20526;-51
2021/05/25 03:27:49;;;;;;;0.30;0.20;;;;;;;10.79;93.14;99940.53;4999052;28;20457;-50
2021/05/25 03:30:19;;;;;;;0.30;0.20;;;;;;;10.88;93.06;99942.88;5001499;28;20856;-51
2021/05/25 03:32:46;;;;;;;0.30;0.20;;;;;;;11.10;92.11;99937.63;5007041;28;20450;-51
2021/05/25 03:35:17;;;;;;;0.30;0.20;;;;;;;11.06;92.11;99941.34;5006306;28;20473;-50
2021/05/25 03:37:44;;;;;;;0.30;0.20;;;;;;;11.03;91.76;99952.97;5006737;28;20520;-50
2021/05/25 03:40:13;;;;;;;0.30;0.20;;;;;;;10.97;92.08;99948.75;5006915;28;20453;-51
2021/05/25 03:42:46;;;;;;;0.30;0.20;;;;;;;11.19;91.08;99947.94;5000763;28;20514;-51
2021/05/25 03:45:14;;;;;;;0.30;0.20;;;;;;;11.12;91.29;99954.44;5000044;28;20528;-50
2021/05/25 03:47:41;;;;;;;0.30;0.20;;;;;;;10.97;91.69;99946.09;5004566;28;20454;-51
2021/05/25 03:50:09;;;;;;;0.30;0.20;;;;;;;11.03;91.89;99952.09;5005873;28;20452;-50
2021/05/25 03:52:41;;;;;;;0.30;0.20;;;;;;;10.98;90.82;99952.28;5002655;28;20448;-51
2021/05/25 03:55:20;;;;;;;0.30;0.20;;;;;;;10.77;92.03;99945.91;4998743;28;20486;-50
2021/05/25 04:00:34;;;;;;;0.30;0.20;;;;;;;10.72;91.61;99945.22;5005706;28;20822;-50
2021/05/25 04:03:00;;;;;;;0.30;0.20;;;;;;;10.81;93.07;99952.84;5007003;28;20822;-51
2021/05/25 04:05:27;;;;;;;0.30;0.20;;;;;;;10.80;93.39;99950.25;5013785;28;20530;-51
2021/05/25 04:07:54;;;;;;;0.30;0.20;;;;;;;10.87;93.41;99949.97;5012648;28;20480;-50
2021/05/25 04:10:21;;;;;;;0.30;0.20;;;;;;;11.02;93.94;99950.34;5012590;28;20499;-50
2021/05/25 04:12:48;;;;;;;0.30;0.20;;;;;;;10.65;94.21;99956.94;5010004;28;20448;-50
2021/05/25 04:15:15;;;;;;;0.30;0.20;;;;;;;10.69;92.71;99958.63;5012501;28;20461;-50
2021/05/25 04:17:42;;;;;;;0.30;0.20;;;;;;;10.87;93.49;99959.75;4999893;28;20491;-50
2021/05/25 04:20:12;;;;;;;0.30;0.20;;;;;;;10.79;93.25;99970.63;5003245;28;20454;-51
2021/05/25 04:22:39;;;;;;;0.30;0.20;;;;;;;10.75;93.34;99961.03;5006065;28;20508;-50
2021/05/25 04:25:07;;;;;;;0.30;0.20;;;;;;;10.70;93.60;99968.31;5002958;28;20495;-50
2021/05/25 04:27:34;;;;;;;0.30;0.20;;;;;;;10.71;93.69;99969.19;4999172;28;20475;-50
2021/05/25 04:30:00;;;;;;;0.30;0.20;;;;;;;10.79;92.16;99969.78;5002139;28;20504;-50
2021/05/25 04:32:27;;;;;;;0.30;0.20;;;;;;;10.84;92.31;99973.16;5006192;28;20475;-50
2021/05/25 04:34:53;;;;;;;0.30;0.20;;;;;;;10.78;92.59;99981.31;5003479;28;20538;-50
2021/05/25 04:37:20;;;;;;;0.30;0.20;;;;;;;10.84;92.38;99978.47;4999199;28;21040;-50
2021/05/25 04:39:47;;;;;;;0.30;0.20;;;;;;;10.82;92.31;99974.97;5001966;28;20569;-50
2021/05/25 04:42:13;;;;;;;0.30;0.20;;;;;;;10.88;92.93;99980.97;5006097;28;20472;-50
2021/05/25 04:44:40;;;;;;;0.30;0.20;;;;;;;10.69;94.66;99982.53;5003217;28;20906;-50
2021/05/25 04:47:06;;;;;;;0.30;0.20;;;;;;;10.89;95.12;99981.84;4998572;28;20502;-50
2021/05/25 04:49:35;;;;;;;0.30;0.20;;;;;;;10.77;96.15;99988.44;5001231;28;20801;-50
2021/05/25 04:52:03;;;;;;;0.30;0.20;;;;;;;10.50;98.31;99984.06;5005822;28;20453;-50
2021/05/25 04:54:30;;;;;;;0.30;0.20;;;;;;;10.72;98.66;99986.88;5004145;28;20473;-50
2021/05/25 04:56:56;;;;;;;0.30;0.20;;;;;;;10.53;99.31;99997.22;4997649;28;20488;-50
2021/05/25 04:59:23;;;;;;;0.30;0.20;;;;;;;10.42;98.90;99991.44;5000833;28;20669;-50
2021/05/25 05:01:50;;;;;;;0.30;0.20;;;;;;;10.33;98.90;100003.22;5007807;28;20453;-50
2021/05/25 05:04:17;;;;;;;0.30;0.20;;;;;;;10.33;99.88;99997.91;5008567;28;20456;-50
2021/05/25 05:06:43;;;;;;;0.30;0.20;;;;;;;10.32;99.58;99994.38;5017322;28;20775;-50
2021/05/25 05:09:10;;;;;;;0.30;0.20;;;;;;;10.46;98.63;100001.91;5016575;28;20848;-50
2021/05/25 05:11:37;;;;;;;0.30;0.20;;;;;;;10.38;98.87;100002.13;5013160;28;20446;-51
2021/05/25 05:14:04;;;;;;;0.30;0.20;;;;;;;10.72;97.57;100005.47;5015297;28;21004;-50
2021/05/25 05:16:30;;;;;;;0.30;0.20;;;;;;;10.35;98.15;100001.38;5013466;28;20534;-50
2021/05/25 05:18:57;;;;;;;0.30;0.20;;;;;;;10.51;98.86;100004.38;5011960;28;20444;-50
2021/05/25 05:21:23;;;;;;;0.30;0.20;;;;;;;10.80;98.27;100014.91;5015676;28;20452;-50
2021/05/25 05:23:50;;;;;;;0.30;0.20;;;;;;;10.80;97.67;100019.38;5015487;28;20937;-50
2021/05/25 05:26:17;;;;;;;0.30;0.20;;;;;;;10.62;98.39;100013.75;5004067;28;20524;-51
2021/05/25 05:28:43;;;;;;;0.30;0.20;;;;;;;10.62;98.93;100024.38;5011661;28;20856;-51
2021/05/25 05:31:10;;;;;;;0.30;0.20;;;;;;;10.49;99.33;100031.03;4996409;28;20476;-51
2021/05/25 05:33:41;;;;;;;0.30;0.20;;;;;;;10.63;99.01;100033.22;5009417;28;20511;-51
2021/05/25 05:36:08;;;;;;;0.30;0.20;;;;;;;10.71;97.78;100041.81;5003430;28;20526;-51
2021/05/25 05:38:35;;;;;;;0.30;0.20;;;;;;;10.67;99.17;100029.53;5002338;28;20457;-51
2021/05/25 05:41:04;;;;;;;0.30;0.20;;;;;;;10.49;100.00;100035.47;5012257;28;20444;-51
2021/05/25 05:43:32;;;;;;;0.30;0.20;;;;;;;10.56;100.00;100040.53;5013179;28;20455;-51
2021/05/25 05:45:59;;;;;;;0.30;0.20;;;;;;;10.48;100.00;100031.94;5013562;28;20475;-51
2021/05/25 05:48:30;;;;;;;0.30;0.20;;;;;;;10.70;99.65;100037.44;5012270;28;20440;-51
2021/05/25 05:50:57;;;;;;;0.30;0.20;;;;;;;10.62;97.55;100035.00;5013608;28;20442;-51
2021/05/25 05:53:23;;;;;;;0.30;0.20;;;;;;;10.71;98.82;100035.66;5016719;28;20448;-51
2021/05/25 05:55:50;;;;;;;0.30;0.20;;;;;;;11.02;98.50;100035.47;5011526;28;20471;-51
2021/05/25 05:58:17;;;;;;;0.30;0.20;;;;;;;10.81;96.14;100029.94;5014070;28;20493;-50
2021/05/25 06:00:44;;;;;;;0.43;0.40;;;;;;;11.12;94.78;100042.22;5013740;28;20471;-51
2021/05/25 06:03:12;;;;;;;0.30;0.20;;;;;;;11.03;95.05;100039.88;5013308;28;20457;-51
2021/05/25 06:05:39;;;;;;;0.30;0.20;;;;;;;10.83;95.58;100044.09;5016342;28;20461;-51
2021/05/25 06:08:09;;;;;;;0.30;0.20;;;;;;;11.11;94.41;100051.13;5014588;28;20942;-51
2021/05/25 06:10:38;;;;;;;0.30;0.20;;;;;;;10.74;94.63;100047.03;5004299;28;20457;-51
2021/05/25 06:13:06;;;;;;;0.30;0.20;;;;;;;10.91;94.69;100044.66;5000432;28;20444;-51
2021/05/25 06:15:33;;;;;;;0.30;0.20;;;;;;;10.77;95.32;100044.28;5005635;28;20477;-51
2021/05/25 06:18:00;;;;;;;0.30;0.20;;;;;;;10.73;96.34;100044.44;5001568;28;20985;-51
2021/05/25 06:20:27;;;;;;;0.30;0.20;;;;;;;10.55;96.42;100043.22;5003659;28;20520;-51
2021/05/25 06:22:55;;;;;;;0.30;0.20;;;;;;;10.64;96.99;100048.25;5013967;28;20499;-52
2021/05/25 06:25:22;;;;;;;0.30;0.20;;;;;;;10.53;96.46;100043.28;5009747;28;20469;-51
2021/05/25 06:27:49;;;;;;;0.30;0.20;;;;;;;10.58;98.15;100052.00;5002976;28;20445;-51
2021/05/25 06:30:17;;;;;;;0.30;0.20;;;;;;;10.53;97.99;100045.94;5003176;28;20454;-51
2021/05/25 06:32:44;;;;;;;0.30;0.20;;;;;;;10.81;96.98;100048.56;5008243;28;20456;-51
2021/05/25 06:35:11;;;;;;;0.30;0.20;;;;;;;10.71;96.38;100052.47;4995064;28;21021;-51
2021/05/25 06:37:38;;;;;;;0.30;0.20;;;;;;;10.69;96.37;100054.31;5006949;28;20489;-51
2021/05/25 06:40:05;;;;;;;0.30;0.20;;;;;;;10.59;96.87;100042.22;5008282;28;20483;-52
2021/05/25 06:42:32;;;;;;;0.30;0.20;;;;;;;10.70;96.48;100058.69;5010459;28;20433;-51
2021/05/25 06:44:59;;;;;;;0.30;0.20;;;;;;;11.05;95.96;100059.28;5012161;28;20480;-52
2021/05/25 06:47:26;;;;;;;0.30;0.20;;;;;;;10.98;94.98;100059.50;5005602;28;20520;-51
2021/05/25 06:49:54;;;;;;;0.30;0.20;;;;;;;11.20;94.92;100061.41;5010802;28;20444;-52
2021/05/25 06:52:21;;;;;;;0.30;0.20;;;;;;;11.18;95.50;100056.16;5013468;28;20970;-51
2021/05/25 06:54:47;;;;;;;0.30;0.20;;;;;;;11.08;95.25;100060.03;4994787;28;20503;-52
2021/05/25 06:57:14;;;;;;;0.30;0.20;;;;;;;11.00;95.96;100054.13;5001383;28;21435;-52
2021/05/25 06:59:41;;;;;;;0.30;0.20;;;;;;;11.08;94.81;100052.06;4990026;28;20446;-52
2021/05/25 07:02:08;;;;;;;0.30;0.20;;;;;;;10.96;95.03;100058.69;4997697;28;20456;-52
2021/05/25 07:04:35;;;;;;;0.30;0.20;;;;;;;11.14;95.05;100065.19;5001770;28;20526;-51
2021/05/25 07:07:02;;;;;;;0.30;0.20;;;;;;;10.97;95.59;100059.56;5012651;28;20470;-51
2021/05/25 07:09:29;;;;;;;0.30;0.20;;;;;;;11.00;96.58;100069.22;5004635;28;20531;-52
2021/05/25 07:11:56;;;;;;;0.30;0.20;;;;;;;11.04;95.17;100065.53;5002160;28;20453;-51
2021/05/25 07:14:23;;;;;;;0.30;0.20;;;;;;;11.00;95.95;100070.09;5007533;28;20453;-52
2021/05/25 07:16:50;;;;;;;0.30;0.20;;;;;;;10.89;94.86;100072.25;4998243;28;20881;-52
2021/05/25 07:19:16;;;;;;;0.30;0.20;;;;;;;11.12;95.06;100067.03;4996437;28;20516;-52
2021/05/25 07:21:43;;;;;;;0.30;0.20;;;;;;;11.12;95.41;100075.00;5000879;28;20454;-52
2021/05/25 07:24:10;;;;;;;0.30;0.20;;;;;;;11.40;93.40;100074.91;5002558;28;20464;-52
2021/05/25 07:26:37;;;;;;;0.30;0.20;;;;;;;11.32;93.52;100073.44;4997616;28;21025;-52
2021/05/25 07:29:03;;;;;;;0.30;0.20;;;;;;;10.99;94.28;100073.69;5003670;28;20824;-52
2021/05/25 07:31:30;;;;;;;0.30;0.20;;;;;;;11.34;94.06;100075.09;4997683;28;20982;-52
2021/05/25 07:33:57;;;;;;;0.30;0.20;;;;;;;11.40;94.28;100076.69;5003979;28;20836;-52
2021/05/25 07:36:24;;;;;;;0.30;0.20;;;;;;;11.40;94.64;100079.38;5000607;28;20481;-50
2021/05/25 07:38:51;;;;;;;0.30;0.20;;;;;;;11.27;95.69;100087.78;5009714;28;20489;-51
2021/05/25 07:41:18;;;;;;;0.30;0.20;;;;;;;11.26;94.82;100088.69;5009153;28;20468;-51
2021/05/25 07:43:44;;;;;;;0.30;0.20;;;;;;;11.42;95.13;100090.81;5011368;28;20453;-51
2021/05/25 07:46:12;;;;;;;0.30;0.20;;;;;;;11.30;94.31;100088.59;5011799;28;20468;-51
2021/05/25 07:48:40;;;;;;;0.30;0.20;;;;;;;11.35;94.72;100091.94;5010262;28;20786;-51
2021/05/25 07:51:07;;;;;;;0.30;0.20;;;;;;;11.22;94.28;100094.16;5012209;28;20444;-51
2021/05/25 07:53:33;;;;;;;0.30;0.20;;;;;;;11.47;93.02;100102.16;5011968;28;20441;-51
2021/05/25 07:56:00;;;;;;;0.30;0.20;;;;;;;11.54;90.95;100093.91;5013303;28;20515;-51
2021/05/25 07:58:27;;;;;;;0.30;0.20;;;;;;;11.68;90.96;100101.41;5012356;28;20476;-51
2021/05/25 08:00:55;;;;;;;0.30;0.20;;;;;;;11.45;92.01;100104.00;5002999;28;20441;-51
2021/05/25 08:03:21;;;;;;;0.30;0.20;;;;;;;11.45;90.84;100104.88;5005530;28;20454;-51
2021/05/25 08:05:48;;;;;;;0.30;0.20;;;;;;;11.73;90.75;100111.88;5019277;28;20476;-51
2021/05/25 08:08:15;;;;;;;0.30;0.20;;;;;;;11.63;91.42;100110.47;5000604;28;20445;-51
2021/05/25 08:10:42;;;;;;;0.30;0.20;;;;;;;11.82;91.52;100109.78;5001103;28;20453;-51
2021/05/25 08:13:10;;;;;;;0.30;0.20;;;;;;;11.86;91.20;100119.41;4999506;28;20827;-51
2021/05/25 08:15:39;;;;;;;0.30;0.20;;;;;;;11.62;92.26;100111.41;5000256;28;20485;-50
2021/05/25 08:20:39;;;;;;;0.30;0.20;;;;;;;12.10;90.09;100125.63;5006309;28;20475;-51
2021/05/25 08:23:24;;;;;;;0.30;0.20;;;;;;;12.12;90.30;100122.91;5002580;28;20451;-51
2021/05/25 08:25:50;;;;;;;0.30;0.20;;;;;;;12.37;90.26;100131.72;5004637;28;20481;-51
2021/05/25 08:28:17;;;;;;;0.30;0.20;;;;;;;12.14;90.17;100126.38;5002692;28;20499;-51
2021/05/25 08:30:44;;;;;;;0.30;0.20;;;;;;;12.14;89.77;100137.91;4999402;28;20455;-51
2021/05/25 08:33:14;;;;;;;0.30;0.20;;;;;;;12.04;91.03;100140.94;5002396;28;20899;-51
2021/05/25 08:35:44;;;;;;;0.30;0.20;;;;;;;12.16;90.03;100145.84;5005329;28;20470;-51
2021/05/25 08:38:14;;;;;;;0.30;0.20;;;;;;;11.98;89.83;100152.72;5003638;28;20495;-51
2021/05/25 08:40:41;;;;;;;0.30;0.20;;;;;;;12.37;89.38;100154.84;4999383;28;20861;-51
2021/05/25 08:43:09;;;;;;;0.30;0.20;;;;;;;12.00;91.23;100161.53;5001055;28;20962;-50
2021/05/25 08:45:36;;;;;;;0.30;0.20;;;;;;;12.22;90.98;100160.75;5005690;28;20477;-51
2021/05/25 08:48:03;;;;;;;0.30;0.20;;;;;;;12.22;91.26;100155.41;5004853;28;20493;-51
2021/05/25 08:50:52;;;;;;;0.30;0.20;;;;;;;12.07;89.18;100162.19;4992826;28;20485;-51
2021/05/25 08:53:19;;;;;;;0.30;0.20;;;;;;;12.01;89.64;100167.72;5005692;28;20848;-50
2021/05/25 08:55:49;;;;;;;0.30;0.20;;;;;;;12.16;88.92;100159.16;4993391;28;20594;-51
2021/05/25 08:58:16;;;;;;;0.30;0.20;;;;;;;12.39;87.90;100169.84;5003491;28;20572;-51
2021/05/25 09:00:43;;;;;;;0.30;0.20;;;;;;;12.38;86.37;100169.91;5001913;28;20813;-51
2021/05/25 09:03:10;;;;;;;0.30;0.20;;;;;;;12.55;86.17;100171.91;5009228;28;20450;-51
2021/05/25 09:05:37;;;;;;;0.30;0.20;;;;;;;12.23;87.05;100175.81;5005890;28;20464;-51
2021/05/25 09:08:04;;;;;;;0.30;0.20;;;;;;;12.26;85.90;100173.00;5008610;28;20951;-51
2021/05/25 09:13:03;;;;;;;0.30;0.20;;;;;;;12.35;85.33;100186.00;4999230;28;20467;-50
2021/05/25 09:15:31;;;;;;;0.30;0.20;;;;;;;12.43;83.82;100178.56;5000819;28;20523;-51
2021/05/25 09:18:02;;;;;;;0.30;0.20;;;;;;;12.23;85.57;100181.13;5005391;28;20891;-51
2021/05/25 09:20:46;;;;;;;0.30;0.20;;;;;;;12.28;86.33;100180.03;5005029;28;20499;-50
2021/05/25 09:23:43;;;;;;;0.30;0.20;;;;;;;12.52;86.64;100178.22;4992571;28;20802;-51
2021/05/25 09:26:26;;;;;;;0.30;0.20;;;;;;;12.54;87.39;100181.72;5005368;28;20501;-51
2021/05/25 09:29:02;;;;;;;0.30;0.20;;;;;;;12.84;85.10;100187.63;5005494;28;20917;-51
2021/05/25 09:31:43;;;;;;;0.30;0.20;;;;;;;12.91;83.67;100186.47;5001566;28;20945;-51
2021/05/25 09:34:10;;;;;;;0.30;0.20;;;;;;;13.07;82.53;100177.84;4998832;28;20502;-51
2021/05/25 09:37:03;;;;;;;0.30;0.20;;;;;;;13.14;82.29;100180.19;5000542;28;20511;-51
2021/05/25 09:39:35;;;;;;;0.30;0.20;;;;;;;13.33;82.24;100175.03;4992276;28;20859;-51
2021/05/25 09:42:04;;;;;;;0.30;0.20;;;;;;;13.45;80.37;100174.50;5005670;28;20476;-51
2021/05/25 09:44:33;;;;;;;0.30;0.20;;;;;;;13.85;80.04;100173.66;5001779;28;20888;-52
2021/05/25 09:47:02;;;;;;;0.30;0.20;;;;;;;14.05;78.82;100179.91;4998054;28;20452;-51
2021/05/25 09:49:29;;;;;;;0.30;0.20;;;;;;;14.08;78.04;100177.97;5004483;28;20461;-51
2021/05/25 09:52:05;;;;;;;0.30;0.20;;;;;;;13.96;78.38;100173.16;5008945;28;20457;-52
2021/05/25 09:54:32;;;;;;;0.30;0.20;;;;;;;14.03;76.81;100179.13;5007289;28;20891;-51
2021/05/25 09:57:04;;;;;;;0.30;0.20;;;;;;;14.60;76.91;100174.75;5002114;28;20449;-52
2021/05/25 09:59:36;;;;;;;0.30;0.20;;;;;;;14.56;76.29;100174.03;5000895;28;20446;-52
2021/05/25 10:02:16;;;;;;;0.30;0.20;;;;;;;14.87;74.42;100181.47;4995226;28;20457;-52
2021/05/25 10:05:03;;;;;;;0.30;0.20;;;;;;;15.15;72.31;100178.31;5013336;28;21039;-52
2021/05/25 10:07:32;;;;;;;0.30;0.20;;;;;;;15.07;73.72;100176.00;5010407;28;20516;-52
2021/05/25 10:10:02;;;;;;;0.30;0.20;;;;;;;15.13;74.37;100180.22;5010162;28;20774;-52
2021/05/25 10:12:30;;;;;;;0.30;0.20;;;;;;;14.85;74.61;100199.41;5012928;28;20452;-52
2021/05/25 10:14:57;;;;;;;0.30;0.20;;;;;;;14.63;75.06;100198.69;5014918;28;20473;-52
2021/05/25 10:20:06;;;;;;;0.30;0.20;;;;;;;14.96;74.74;100197.09;5004379;28;20464;-52
2021/05/25 10:22:34;;;;;;;0.30;0.20;;;;;;;14.93;73.70;100205.25;5008626;28;20461;-52
2021/05/25 10:25:04;;;;;;;0.30;0.20;;;;;;;15.17;71.81;100200.53;5023085;28;20579;-52
2021/05/25 10:27:31;;;;;;;0.30;0.20;;;;;;;15.21;72.08;100198.56;5001492;28;20448;-52
2021/05/25 10:30:24;;;;;;;0.30;0.20;;;;;;;15.31;71.75;100197.16;5003778;28;20472;-52
2021/05/25 10:33:13;;;;;;;0.30;0.20;;;;;;;15.76;72.44;100201.19;5002416;28;20455;-52
2021/05/25 10:35:49;;;;;;;0.30;0.20;;;;;;;15.89;72.65;100203.16;5000011;28;20953;-52
2021/05/25 10:38:17;;;;;;;0.30;0.20;;;;;;;15.75;70.96;100208.34;5002686;28;20503;-52
2021/05/25 10:40:47;;;;;;;0.30;0.20;;;;;;;15.72;71.40;100194.25;5013664;28;20475;-52
2021/05/25 10:43:44;;;;;;;0.30;0.20;;;;;;;15.45;69.65;100212.56;5001914;28;20460;-52
2021/05/25 10:46:14;;;;;;;0.30;0.20;;;;;;;14.95;70.41;100213.22;4994526;28;20910;-51
2021/05/25 10:49:10;;;;;;;0.30;0.20;;;;;;;14.69;71.31;100207.31;5006608;28;20456;-51
2021/05/25 10:52:02;;;;;;;0.30;0.20;;;;;;;14.40;73.89;100213.97;5007569;28;20453;-52
2021/05/25 10:54:53;;;;;;;0.30;0.20;;;;;;;14.44;75.34;100220.94;5006456;28;20560;-51
2021/05/25 10:57:37;;;;;;;0.30;0.20;;;;;;;14.15;76.96;100216.88;5003810;28;20441;-51
2021/05/25 11:00:26;;;;;;;21.77;1.07;;;;;;;14.12;76.95;100209.00;5000722;28;20536;-51
2021/05/25 11:02:56;;;;;;;0.30;0.20;;;;;;;14.15;76.68;100213.31;5000355;28;20998;-51
2021/05/25 11:05:58;;;;;;;0.30;0.20;;;;;;;14.24;74.88;100213.75;5021620;28;20472;-51
2021/05/25 11:08:28;;;;;;;0.30;0.20;;;;;;;14.60;73.76;100221.09;5001060;28;20444;-51
2021/05/25 11:11:01;;;;;;;0.30;0.20;;;;;;;15.12;72.38;100221.31;5001386;28;20458;-52
2021/05/25 11:13:30;;;;;;;0.30;0.20;;;;;;;15.72;70.59;100226.41;5002124;28;21310;-51
2021/05/25 11:16:25;;;;;;;0.30;0.20;;;;;;;15.75;68.45;100235.16;5000629;28;20524;-51
2021/05/25 11:19:53;;;;;;;0.30;0.20;;;;;;;15.89;67.60;100216.56;5001477;28;20493;-51
2021/05/25 11:24:41;;;;;;;0.30;0.20;;;;;;;15.82;66.81;100233.03;5000239;28;20450;-51
2021/05/25 11:27:10;;;;;;;0.40;0.30;;;;;;;15.55;66.72;100259.38;4994208;28;20445;-51
2021/05/25 11:29:53;;;;;;;0.30;0.20;;;;;;;15.50;65.86;100250.72;5006947;28;20453;-51
2021/05/25 11:32:22;;;;;;;0.30;0.20;;;;;;;15.58;65.33;100245.84;5007377;28;20886;-51
2021/05/25 11:34:57;;;;;;;0.30;0.20;;;;;;;15.88;64.64;100244.31;5003566;28;20468;-51
2021/05/25 11:37:25;;;;;;;0.30;0.20;;;;;;;16.01;65.07;100244.56;5000325;28;20506;-51
2021/05/25 11:39:55;;;;;;;0.30;0.20;;;;;;;16.32;65.33;100246.53;5002101;28;20508;-51
2021/05/25 11:42:30;;;;;;;0.30;0.20;;;;;;;16.78;63.48;100247.63;5007119;28;20456;-51
2021/05/25 11:44:59;;;;;;;0.30;0.20;;;;;;;17.15;63.79;100237.53;5005678;28;20563;-51
2021/05/25 11:47:26;;;;;;;0.33;0.20;;;;;;;17.01;64.44;100251.72;5006353;28;20454;-51
2021/05/25 11:49:53;;;;;;;0.40;0.20;;;;;;;17.35;63.55;100257.88;5006992;28;20456;-51
2021/05/25 11:52:24;;;;;;;0.40;0.20;;;;;;;17.18;62.38;100243.56;5000794;28;20468;-51
2021/05/25 11:54:54;;;;;;;0.30;0.20;;;;;;;17.08;61.23;100249.53;5000195;28;20527;-51